Time;durP1;ratioP1;P1;durP2;ratioP2;P2;SDS_P1;SDS_P2;PMS_P1;PMS_P2;Temp;Humidity;BMP_temperature;BMP_pressure;BME280_temperature;BME280_humidity;BME280_pressure;Samples;Min_cycle;Max_cycle;Signal;HPM_P1;HPM_P2
2021/04/13 00:01:14;;;;;;;11.13;3.38;;;460.90;947.20;;;;;;5018270;28;20036;-84
2021/04/13 00:03:56;;;;;;;9.25;3.40;;;460.80;972.80;;;;;;5024592;28;20039;-83
2021/04/13 00:06:48;;;;;;;9.65;3.25;;;436.10;972.80;;;;;;5018802;28;20416;-84
2021/04/13 00:09:21;;;;;;;8.30;3.28;;;436.00;998.40;;;;;;5015266;28;20021;-83
2021/04/13 00:11:54;;;;;;;9.73;3.88;;;435.90;1049.60;;;;;;5034675;28;20033;-83
2021/04/13 00:14:25;;;;;;;12.40;3.25;;;435.80;1075.20;;;;;;5018180;28;20029;-83
2021/04/13 00:16:54;;;;;;;9.45;3.78;;;435.80;1152.00;;;;;;5035368;28;20021;-83
2021/04/13 00:19:29;;;;;;;9.93;4.10;;;435.60;1228.80;;;;;;5035194;28;20112;-84
2021/04/13 00:21:56;;;;;;;7.57;2.85;;;435.40;1305.60;;;;;;5016617;28;20475;-83
2021/04/13 00:24:24;;;;;;;10.02;3.58;;;435.30;1305.60;;;;;;5018408;28;20059;-83
2021/04/13 00:26:53;;;;;;;10.60;3.28;;;410.50;1305.60;;;;;;5017542;28;20117;-82
2021/04/13 00:29:24;;;;;;;10.77;3.47;;;410.30;1356.80;;;;;;5017767;28;20026;-83
2021/04/13 00:31:58;;;;;;;13.68;6.05;;;410.10;1433.60;;;;;;5036080;28;20072;-84
2021/04/13 00:34:32;;;;;;;12.45;5.07;;;410.10;1433.60;;;;;;5018332;28;20484;-83
2021/04/13 00:37:20;;;;;;;8.18;3.53;;;410.00;1510.40;;;;;;5011341;28;20026;-85
2021/04/13 00:39:48;;;;;;;9.50;3.08;;;410.00;1484.80;;;;;;5017916;28;20029;-86
2021/04/13 00:42:21;;;;;;;11.05;3.53;;;409.90;1587.20;;;;;;5017703;28;20084;-86
2021/04/13 00:44:54;;;;;;;14.98;4.15;;;409.70;1587.20;;;;;;5017919;28;20030;-86
2021/04/13 00:47:31;;;;;;;27.77;10.82;;;409.70;1817.60;;;;;;5035627;28;20048;-85
2021/04/13 00:50:02;;;;;;;18.80;8.50;;;409.60;2048.00;;;;;;5017645;28;20427;-84
2021/04/13 00:52:38;;;;;;;15.00;5.75;;;384.90;2304.00;;;;;;5035478;28;20041;-86
2021/04/13 00:55:07;;;;;;;12.90;6.30;;;384.90;2329.60;;;;;;5018290;28;20103;-83
2021/04/13 00:57:40;;;;;;;26.05;14.70;;;384.80;2329.60;;;;;;5014984;28;20485;-85
2021/04/13 01:00:11;;;;;;;38.38;19.23;;;384.90;2329.60;;;;;;5018023;28;20077;-84
2021/04/13 01:02:37;;;;;;;12.55;5.28;;;384.60;2329.60;;;;;;5017299;28;20473;-85
2021/04/13 01:05:20;;;;;;;10.35;5.45;;;384.10;2329.60;;;;;;5018240;28;20096;-84
2021/04/13 01:07:52;;;;;;;10.35;3.67;;;384.00;2329.60;;;;;;5017812;28;20033;-84
2021/04/13 01:10:23;;;;;;;12.98;5.53;;;384.10;2329.60;;;;;;5017359;28;20026;-86
2021/04/13 01:13:04;;;;;;;15.05;6.95;;;384.30;2329.60;;;;;;5017885;28;20481;-85
2021/04/13 01:15:31;;;;;;;17.08;5.95;;;384.30;2329.60;;;;;;5017454;28;20448;-87
2021/04/13 01:17:57;;;;;;;14.25;5.72;;;384.20;2329.60;;;;;;5016724;28;20029;-86
2021/04/13 01:20:35;;;;;;;18.45;6.90;;;384.20;2329.60;;;;;;5018990;28;20029;-85
2021/04/13 01:23:13;;;;;;;10.70;4.53;;;384.30;2329.60;;;;;;5016712;28;20030;-86
2021/04/13 01:25:44;;;;;;;8.70;4.18;;;384.30;2329.60;;;;;;5017214;28;20044;-86
2021/04/13 01:28:18;;;;;;;9.13;3.42;;;384.30;2329.60;;;;;;5017548;28;20030;-83
2021/04/13 01:30:47;;;;;;;12.85;4.30;;;384.40;2329.60;;;;;;5016241;28;20053;-86
2021/04/13 01:33:20;;;;;;;19.05;10.60;;;384.30;2329.60;;;;;;5034771;28;20087;-86
2021/04/13 01:35:53;;;;;;;13.10;6.57;;;384.40;2329.60;;;;;;5016863;28;20478;-86
2021/04/13 01:38:27;;;;;;;8.93;4.20;;;384.40;2329.60;;;;;;5034491;28;20021;-86
2021/04/13 01:43:47;;;;;;;12.07;3.45;;;384.30;2329.60;;;;;;5033436;28;20029;-84
2021/04/13 01:46:13;;;;;;;11.30;4.15;;;384.40;2329.60;;;;;;5016160;28;20488;-86
2021/04/13 01:48:41;;;;;;;12.65;6.30;;;384.30;2329.60;;;;;;5015556;28;20112;-85
2021/04/13 01:51:10;;;;;;;13.13;7.13;;;384.30;2329.60;;;;;;5033991;28;20108;-86
2021/04/13 01:53:46;;;;;;;17.33;7.95;;;384.30;2329.60;;;;;;5016107;28;20049;-86
2021/04/13 01:56:49;;;;;;;15.60;7.93;;;384.20;2329.60;;;;;;5034547;28;20029;-84
2021/04/13 01:59:30;;;;;;;14.13;8.43;;;384.30;2329.60;;;;;;4985891;28;20040;-85
2021/04/13 02:02:00;;;;;;;14.43;7.40;;;384.10;2329.60;;;;;;5016468;28;20548;-85
2021/04/13 02:04:35;;;;;;;10.23;6.55;;;384.30;2329.60;;;;;;5034374;28;20375;-86
2021/04/13 02:07:33;;;;;;;11.20;6.13;;;384.10;2329.60;;;;;;5016316;28;20478;-85
2021/04/13 02:10:02;;;;;;;12.45;5.72;;;384.10;2329.60;;;;;;5033400;28;20037;-86
2021/04/13 02:12:31;;;;;;;13.02;5.85;;;384.10;2329.60;;;;;;5016528;28;20025;-85
2021/04/13 02:15:30;;;;;;;11.45;5.38;;;384.10;2329.60;;;;;;5032912;28;20022;-85
2021/04/13 02:18:01;;;;;;;10.75;4.25;;;384.00;2329.60;;;;;;5015817;28;20036;-85
2021/04/13 02:20:31;;;;;;;10.70;3.63;;;384.00;2329.60;;;;;;5015436;28;20032;-84
2021/04/13 02:23:00;;;;;;;5.93;2.95;;;359.20;2329.60;;;;;;5015051;28;20080;-85
2021/04/13 02:25:30;;;;;;;9.63;3.15;;;359.20;2329.60;;;;;;5033485;28;20496;-85
2021/04/13 02:28:01;;;;;;;11.52;5.00;;;359.10;2329.60;;;;;;5014654;28;20476;-84
2021/04/13 02:30:48;;;;;;;8.60;3.00;;;359.10;2329.60;;;;;;5016289;28;20025;-85
2021/04/13 02:33:17;;;;;;;7.47;2.90;;;359.10;2329.60;;;;;;5016581;28;20025;-84
2021/04/13 02:35:44;;;;;;;14.85;4.45;;;359.10;2329.60;;;;;;5033765;28;20083;-84
2021/04/13 02:38:31;;;;;;;10.18;3.80;;;359.00;2329.60;;;;;;5016131;28;20029;-87
2021/04/13 02:41:07;;;;;;;11.88;3.17;;;358.80;2329.60;;;;;;5015628;28;20041;-85
2021/04/13 02:43:42;;;;;;;11.15;3.00;;;358.70;2329.60;;;;;;5019501;28;20030;-84
2021/04/13 02:46:16;;;;;;;6.75;3.05;;;358.80;2329.60;;;;;;5020011;28;20120;-88
2021/04/13 02:48:51;;;;;;;9.82;3.95;;;358.90;2329.60;;;;;;5019761;28;20377;-86
2021/04/13 02:51:18;;;;;;;12.10;5.75;;;359.00;2329.60;;;;;;5019912;28;20033;-85
2021/04/13 02:53:56;;;;;;;13.05;6.18;;;358.90;2329.60;;;;;;5019568;28;20165;-87
2021/04/13 02:56:35;;;;;;;13.65;4.85;;;358.90;2329.60;;;;;;5019835;28;20033;-87
2021/04/13 02:59:13;;;;;;;11.00;3.88;;;358.90;2329.60;;;;;;5019898;28;20374;-88
2021/04/13 03:01:47;;;;;;;10.75;3.40;;;359.00;2329.60;;;;;;5019148;28;20041;-85
2021/04/13 03:04:14;;;;;;;10.70;3.35;;;359.10;2329.60;;;;;;5018766;28;20060;-83
2021/04/13 03:06:44;;;;;;;8.15;3.60;;;359.10;2329.60;;;;;;5019435;28;20473;-84
2021/04/13 03:09:11;;;;;;;9.35;3.75;;;359.10;2329.60;;;;;;5018560;28;20044;-86
2021/04/13 03:11:43;;;;;;;9.95;3.67;;;359.20;2329.60;;;;;;5019481;28;20029;-87
2021/04/13 03:14:10;;;;;;;10.48;3.50;;;359.10;2329.60;;;;;;5019711;28;20365;-86
2021/04/13 03:16:38;;;;;;;9.32;3.83;;;359.10;2329.60;;;;;;5036796;28;20022;-83
2021/04/13 03:19:13;;;;;;;9.90;4.18;;;359.10;2329.60;;;;;;5019282;28;20029;-83
2021/04/13 03:21:47;;;;;;;10.98;4.13;;;359.10;2329.60;;;;;;5019064;28;20501;-82
2021/04/13 03:24:18;;;;;;;8.60;3.65;;;359.10;2329.60;;;;;;5018503;28;20036;-83
2021/04/13 03:26:47;;;;;;;8.98;3.80;;;359.00;2329.60;;;;;;5018789;28;20029;-82
2021/04/13 03:29:34;;;;;;;8.80;3.83;;;359.00;2329.60;;;;;;5036131;28;20034;-84
2021/04/13 03:32:02;;;;;;;8.90;3.50;;;359.00;2329.60;;;;;;5019006;28;20040;-83
2021/04/13 03:34:28;;;;;;;9.25;4.15;;;358.90;2329.60;;;;;;5019080;28;20026;-87
2021/04/13 03:36:58;;;;;;;10.52;4.40;;;358.90;2329.60;;;;;;5018924;28;20179;-86
2021/04/13 03:39:27;;;;;;;8.85;3.90;;;358.90;2329.60;;;;;;5036838;28;20113;-86
2021/04/13 03:41:55;;;;;;;10.30;4.15;;;359.00;2329.60;;;;;;5018605;28;20132;-86
2021/04/13 03:44:22;;;;;;;10.45;5.00;;;358.90;2329.60;;;;;;5018460;28;20033;-85
2021/04/13 03:46:48;;;;;;;12.07;4.05;;;359.00;2329.60;;;;;;5036808;28;20029;-86
2021/04/13 03:49:31;;;;;;;15.13;5.47;;;359.10;2329.60;;;;;;5019395;28;20029;-86
2021/04/13 03:52:04;;;;;;;;;;;359.10;2329.60;;;;;;5019020;28;20064;-85
2021/04/13 03:54:34;;;;;;;20.70;7.70;;;359.00;2329.60;;;;;;5036041;28;19916;-86
2021/04/13 03:57:01;;;;;;;17.33;7.15;;;358.90;2329.60;;;;;;5018421;28;20037;-86
2021/04/13 03:59:29;;;;;;;15.18;5.60;;;358.90;2329.60;;;;;;5019164;28;20048;-85
2021/04/13 04:01:56;;;;;;;13.40;5.05;;;358.80;2329.60;;;;;;5018472;28;20037;-87
2021/04/13 04:04:59;;;;;;;9.95;5.47;;;358.80;2329.60;;;;;;5018217;28;20480;-84
2021/04/13 04:07:44;;;;;;;11.02;4.68;;;358.80;2329.60;;;;;;4956053;29;20035;-85
2021/04/13 04:10:46;;;;;;;10.35;4.28;;;358.80;2329.60;;;;;;5012193;28;20040;-85
2021/04/13 04:13:41;;;;;;;11.98;4.28;;;358.80;2329.60;;;;;;5018130;28;20029;-86
2021/04/13 04:16:14;;;;;;;13.57;6.38;;;358.70;2329.60;;;;;;4962182;28;20046;-85
2021/04/13 04:18:48;;;;;;;18.50;5.63;;;358.90;2329.60;;;;;;5034290;28;20087;-85
2021/04/13 04:21:24;;;;;;;12.45;6.82;;;359.00;2329.60;;;;;;5017222;28;20048;-84
2021/04/13 04:24:01;;;;;;;16.50;7.43;;;359.00;2329.60;;;;;;5018114;28;20026;-84
2021/04/13 04:26:30;;;;;;;16.80;6.97;;;359.00;2329.60;;;;;;5018005;28;20461;-84
2021/04/13 04:29:12;;;;;;;14.77;9.60;;;359.00;2329.60;;;;;;5014949;28;20032;-86
2021/04/13 04:31:39;;;;;;;15.60;9.77;;;359.10;2329.60;;;;;;5016192;28;20030;-86
2021/04/13 04:34:34;;;;;;;18.85;9.95;;;359.10;2329.60;;;;;;5014479;28;20026;-85
2021/04/13 04:37:00;;;;;;;17.98;9.23;;;359.20;2329.60;;;;;;5011770;28;20025;-85
2021/04/13 04:39:38;;;;;;;42.80;24.63;;;359.20;2329.60;;;;;;5017622;28;20484;-86
2021/04/13 04:42:10;;;;;;;61.55;35.92;;;359.20;2329.60;;;;;;5035037;28;20103;-86
2021/04/13 04:44:37;;;;;;;57.88;33.80;;;359.30;2329.60;;;;;;5017273;28;20025;-86
2021/04/13 04:47:32;;;;;;;63.53;35.67;;;359.20;2329.60;;;;;;5017615;28;20111;-86
2021/04/13 04:49:58;;;;;;;31.63;15.90;;;359.30;2329.60;;;;;;5017892;28;20457;-87
2021/04/13 04:52:24;;;;;;;30.20;12.85;;;359.10;2329.60;;;;;;5017314;28;20049;-85
2021/04/13 04:54:50;;;;;;;25.88;15.95;;;359.10;2329.60;;;;;;5017275;28;20021;-86
2021/04/13 04:57:15;;;;;;;24.98;15.98;;;359.10;2329.60;;;;;;5035375;28;20029;-88
2021/04/13 04:59:41;;;;;;;19.38;12.70;;;359.10;2329.60;;;;;;5017382;28;20116;-84
2021/04/13 05:02:07;;;;;;;26.40;14.60;;;359.20;2329.60;;;;;;5017001;28;20033;-85
2021/04/13 05:04:33;;;;;;;25.15;14.85;;;359.30;2329.60;;;;;;5016330;28;20029;-85
2021/04/13 05:06:59;;;;;;;23.13;14.98;;;359.30;2329.60;;;;;;5034077;28;20033;-84
2021/04/13 05:09:24;;;;;;;37.65;16.27;;;384.00;2329.60;;;;;;5017225;28;20380;-87
2021/04/13 05:11:50;;;;;;;35.72;19.45;;;384.10;2329.60;;;;;;5017367;28;20172;-84
2021/04/13 05:14:16;;;;;;;39.70;18.75;;;359.20;2329.60;;;;;;5034663;28;20029;-85
2021/04/13 05:16:42;;;;;;;27.27;16.85;;;359.30;2329.60;;;;;;5034817;28;20109;-86
2021/04/13 05:19:07;;;;;;;30.70;18.45;;;384.00;2329.60;;;;;;5034975;28;20021;-86
2021/04/13 05:21:33;;;;;;;41.40;27.75;;;384.10;2329.60;;;;;;5016958;28;20045;-86
2021/04/13 05:23:59;;;;;;;39.25;26.77;;;384.10;2329.60;;;;;;5034852;28;20021;-85
2021/04/13 05:26:25;;;;;;;41.40;18.80;;;384.20;2329.60;;;;;;5016834;28;20029;-84
2021/04/13 05:28:52;;;;;;;34.50;21.52;;;384.20;2329.60;;;;;;5016447;28;20036;-85
2021/04/13 05:31:17;;;;;;;30.45;19.05;;;384.10;2329.60;;;;;;5034901;28;20033;-85
2021/04/13 05:33:43;;;;;;;41.28;24.92;;;384.00;2329.60;;;;;;5015970;28;20037;-85
2021/04/13 05:36:10;;;;;;;54.72;29.35;;;384.10;2329.60;;;;;;5013503;28;20073;-85
2021/04/13 05:38:40;;;;;;;66.35;36.35;;;384.10;2329.60;;;;;;5047706;28;20029;-84
2021/04/13 05:41:08;;;;;;;76.90;41.67;;;384.00;2329.60;;;;;;5016641;28;20069;-85
2021/04/13 05:43:38;;;;;;;76.15;41.70;;;359.30;2329.60;;;;;;5016060;28;20025;-84
2021/04/13 05:46:05;;;;;;;68.07;39.85;;;359.20;2329.60;;;;;;5017364;28;20029;-84
2021/04/13 05:48:31;;;;;;;67.82;39.03;;;384.00;2329.60;;;;;;5016552;28;20022;-84
2021/04/13 05:50:58;;;;;;;81.30;42.53;;;384.10;2329.60;;;;;;5016400;28;20040;-84
2021/04/13 05:53:24;;;;;;;81.80;49.38;;;384.00;2329.60;;;;;;5016166;28;20056;-84
2021/04/13 05:55:53;;;;;;;68.57;44.85;;;359.30;2329.60;;;;;;5016206;28;20076;-82
2021/04/13 05:58:25;;;;;;;58.88;35.50;;;384.10;2329.60;;;;;;5016465;28;20116;-86
2021/04/13 06:00:53;;;;;;;;;;;384.20;2329.60;;;;;;5017032;28;20030;-86
2021/04/13 06:03:21;;;;;;;58.05;34.00;;;384.30;2329.60;;;;;;5015401;28;20281;-87
2021/04/13 06:05:49;;;;;;;90.05;48.65;;;384.30;2329.60;;;;;;5016366;28;20472;-85
2021/04/13 06:08:15;;;;;;;61.50;38.80;;;384.40;2329.60;;;;;;5033605;28;20106;-85
2021/04/13 06:10:41;;;;;;;57.42;39.80;;;384.40;2329.60;;;;;;5015902;28;20025;-86
2021/04/13 06:13:07;;;;;;;67.38;46.03;;;384.40;2329.60;;;;;;5014924;28;20029;-83
2021/04/13 06:15:34;;;;;;;71.13;47.28;;;384.40;2329.60;;;;;;5016500;28;20026;-84
2021/04/13 06:18:00;;;;;;;61.55;36.85;;;384.60;2329.60;;;;;;5019215;28;20029;-84
2021/04/13 06:20:29;;;;;;;36.20;21.27;;;384.60;2329.60;;;;;;5020146;28;20060;-84
2021/04/13 06:22:55;;;;;;;27.85;17.27;;;384.60;2329.60;;;;;;5020078;28;20037;-85
2021/04/13 06:25:23;;;;;;;26.00;13.20;;;384.60;2329.60;;;;;;5019933;28;20021;-84
2021/04/13 06:27:50;;;;;;;25.20;13.00;;;384.70;2329.60;;;;;;5020286;28;20036;-84
2021/04/13 06:30:18;;;;;;;20.92;12.60;;;384.80;2329.60;;;;;;5020186;28;20479;-84
2021/04/13 06:32:44;;;;;;;24.15;14.07;;;384.90;2329.60;;;;;;5020144;28;20037;-85
2021/04/13 06:35:10;;;;;;;28.23;14.40;;;409.60;2355.20;;;;;;5020020;28;20449;-84
2021/04/13 06:37:41;;;;;;;26.30;13.13;;;409.60;2355.20;;;;;;5019997;28;20124;-85
2021/04/13 06:40:09;;;;;;;21.73;9.82;;;409.60;2355.20;;;;;;5019802;28;20432;-84
2021/04/13 06:42:47;;;;;;;18.20;9.93;;;384.90;2329.60;;;;;;5019610;28;20094;-84
2021/04/13 06:45:31;;;;;;;17.60;8.48;;;409.60;2355.20;;;;;;5019796;28;20067;-83
2021/04/13 06:48:03;;;;;;;20.42;10.48;;;409.70;2355.20;;;;;;5020032;28;20052;-84
2021/04/13 06:50:57;;;;;;;23.95;13.38;;;409.80;2355.20;;;;;;5020720;28;20365;-85
2021/04/13 06:53:33;;;;;;;21.42;10.95;;;409.80;2355.20;;;;;;5019196;28;20095;-82
2021/04/13 06:56:17;;;;;;;19.60;10.20;;;409.80;2355.20;;;;;;5019956;28;20112;-82
2021/04/13 06:59:07;;;;;;;19.08;10.73;;;410.00;2355.20;;;;;;5020132;28;20454;-83
2021/04/13 07:02:02;;;;;;;18.17;10.35;;;410.10;2355.20;;;;;;5019685;28;20033;-85
2021/04/13 07:04:58;;;;;;;24.55;12.52;;;410.20;2355.20;;;;;;5037465;28;20021;-85
2021/04/13 07:07:41;;;;;;;13.60;7.30;;;410.20;2355.20;;;;;;5019340;28;20124;-84
2021/04/13 07:10:24;;;;;;;15.57;9.35;;;410.30;2355.20;;;;;;5019855;28;20465;-84
2021/04/13 07:13:07;;;;;;;14.45;7.90;;;410.30;2355.20;;;;;;5036637;28;20497;-83
2021/04/13 07:15:54;;;;;;;17.38;7.90;;;410.30;2355.20;;;;;;5019317;28;20037;-83
2021/04/13 07:18:39;;;;;;;17.20;9.70;;;410.30;2355.20;;;;;;5019854;28;20356;-84
2021/04/13 07:21:11;;;;;;;23.33;10.13;;;410.30;2355.20;;;;;;5052146;28;20029;-84
2021/04/13 07:23:45;;;;;;;16.47;8.27;;;410.30;2355.20;;;;;;5019628;28;20076;-85
2021/04/13 07:26:20;;;;;;;19.50;9.60;;;410.20;2355.20;;;;;;5019174;28;20025;-85
2021/04/13 07:29:15;;;;;;;22.25;13.00;;;410.20;2355.20;;;;;;5035808;28;20057;-85
2021/04/13 07:32:09;;;;;;;18.48;10.05;;;410.30;2355.20;;;;;;5019159;28;20030;-85
2021/04/13 07:34:38;;;;;;;16.05;7.88;;;410.20;2355.20;;;;;;5018758;28;20032;-85
2021/04/13 07:37:06;;;;;;;11.52;6.10;;;410.40;2355.20;;;;;;5018875;28;20033;-86
2021/04/13 07:39:34;;;;;;;12.30;7.05;;;410.30;2355.20;;;;;;5018933;28;20026;-84
2021/04/13 07:42:08;;;;;;;15.70;7.55;;;410.30;2355.20;;;;;;5018351;28;20033;-85
2021/04/13 07:45:01;;;;;;;14.85;7.85;;;410.40;2355.20;;;;;;5019248;28;20489;-85
2021/04/13 07:48:06;;;;;;;10.43;6.43;;;410.50;2355.20;;;;;;5019195;28;20057;-85
2021/04/13 07:50:53;;;;;;;13.10;6.03;;;410.50;2355.20;;;;;;5018485;28;20040;-81
2021/04/13 07:53:43;;;;;;;20.20;6.13;;;435.30;2355.20;;;;;;5036523;28;20529;-82
2021/04/13 07:56:18;;;;;;;12.27;7.68;;;435.30;2355.20;;;;;;5018159;28;20017;-83
2021/04/13 07:59:02;;;;;;;16.90;7.88;;;435.30;2355.20;;;;;;5016840;28;20030;-84
2021/04/13 08:01:28;;;;;;;14.57;5.97;;;435.30;2355.20;;;;;;5019170;28;20361;-86
2021/04/13 08:03:59;;;;;;;15.75;7.50;;;435.30;2355.20;;;;;;5017346;28;20075;-85
2021/04/13 08:06:28;;;;;;;17.23;9.90;;;435.20;2355.20;;;;;;5001091;28;20080;-85
2021/04/13 08:09:19;;;;;;;13.95;6.55;;;435.30;2355.20;;;;;;5017453;28;20025;-82
2021/04/13 08:12:12;;;;;;;16.85;9.13;;;435.30;2355.20;;;;;;5035264;28;20439;-84
2021/04/13 08:14:41;;;;;;;22.77;10.35;;;435.30;2355.20;;;;;;5009459;28;20036;-81
2021/04/13 08:17:21;;;;;;;17.65;10.30;;;435.40;2355.20;;;;;;5004988;28;20029;-81
2021/04/13 08:20:09;;;;;;;15.77;9.02;;;435.40;2355.20;;;;;;5017322;28;20029;-81
2021/04/13 08:22:54;;;;;;;18.83;9.88;;;435.50;2355.20;;;;;;5017150;28;20072;-79
2021/04/13 08:25:33;;;;;;;16.95;7.68;;;435.60;2355.20;;;;;;5018897;28;20029;-90
2021/04/13 08:28:05;;;;;;;25.67;7.32;;;435.70;2355.20;;;;;;5019361;28;20389;-88
2021/04/13 08:30:45;;;;;;;;;;;435.80;2355.20;;;;;;5020162;28;20121;-88
2021/04/13 08:33:58;;;;;;;14.43;7.40;;;436.00;2355.20;;;;;;5020068;28;19906;-89
2021/04/13 08:36:29;;;;;;;16.33;7.15;;;436.00;2355.20;;;;;;4942347;29;20038;-87
2021/04/13 08:39:12;;;;;;;17.40;8.57;;;436.10;2355.20;;;;;;5014835;28;20350;-88
2021/04/13 08:41:44;;;;;;;23.20;9.73;;;460.80;2380.80;;;;;;5019030;28;20462;-80
2021/04/13 08:44:12;;;;;;;27.25;13.98;;;460.90;2380.80;;;;;;5016374;28;20025;-81
2021/04/13 08:47:19;;;;;;;29.48;12.02;;;461.10;2380.80;;;;;;5017700;28;20487;-86
2021/04/13 08:49:48;;;;;;;19.02;9.43;;;461.10;2355.20;;;;;;5018627;28;20048;-87
2021/04/13 08:52:23;;;;;;;14.95;8.25;;;461.10;2329.60;;;;;;5035702;28;20100;-89
2021/04/13 08:55:01;;;;;;;13.10;8.13;;;461.10;2252.80;;;;;;5019482;28;20033;-87
2021/04/13 08:57:37;;;;;;;19.35;9.82;;;461.10;2150.40;;;;;;5018686;28;20025;-86
2021/04/13 09:00:38;;;;;;;17.75;9.15;;;461.10;2278.40;;;;;;5018555;28;20022;-88
2021/04/13 09:03:11;;;;;;;23.75;9.45;;;461.20;2278.40;;;;;;5018245;28;20036;-86
2021/04/13 09:05:40;;;;;;;23.75;9.98;;;461.10;2201.60;;;;;;5018370;28;20079;-86
2021/04/13 09:08:24;;;;;;;15.93;8.02;;;461.10;2278.40;;;;;;5016983;28;20065;-87
2021/04/13 09:11:25;;;;;;;16.48;7.50;;;461.00;2252.80;;;;;;5017702;28;20128;-86
2021/04/13 09:14:03;;;;;;;15.38;8.25;;;461.00;2227.20;;;;;;5016721;28;20093;-85
2021/04/13 09:16:32;;;;;;;24.63;9.93;;;461.00;2252.80;;;;;;5016087;28;20029;-81
2021/04/13 09:19:02;;;;;;;19.27;8.75;;;461.10;2227.20;;;;;;5015759;28;20080;-82
2021/04/13 09:21:38;;;;;;;17.05;9.30;;;461.00;2201.60;;;;;;5016020;28;20042;-82
2021/04/13 09:24:31;;;;;;;20.67;8.13;;;461.00;2176.00;;;;;;5017526;28;20030;-79
2021/04/13 09:26:57;;;;;;;17.90;7.25;;;461.00;2201.60;;;;;;5016091;28;20029;-80
2021/04/13 09:29:39;;;;;;;21.15;11.68;;;460.80;2150.40;;;;;;5034005;28;20052;-80
2021/04/13 09:32:23;;;;;;;19.50;6.63;;;460.80;2150.40;;;;;;5014780;28;20029;-80
2021/04/13 09:35:15;;;;;;;15.00;7.53;;;460.80;2099.20;;;;;;5016103;28;20496;-80
2021/04/13 09:38:18;;;;;;;22.10;8.48;;;460.80;2176.00;;;;;;5034385;28;20029;-80
2021/04/13 09:41:09;;;;;;;;;;;460.80;2176.00;;;;;;5016474;28;20033;-80
2021/04/13 09:44:09;;;;;;;13.80;7.13;;;460.90;2201.60;;;;;;5009702;28;19959;-80
2021/04/13 09:46:47;;;;;;;16.20;7.05;;;461.10;2150.40;;;;;;5016287;28;20472;-80
2021/04/13 09:49:33;;;;;;;20.85;7.18;;;461.10;2124.80;;;;;;5016247;28;20616;-80
2021/04/13 09:52:08;;;;;;;18.92;8.30;;;461.30;2048.00;;;;;;5015692;28;20041;-80
2021/04/13 09:54:42;;;;;;;13.27;6.78;;;461.40;1971.20;;;;;;5015745;28;20044;-80
2021/04/13 09:57:14;;;;;;;15.18;7.60;;;461.50;2022.40;;;;;;5016625;28;20420;-79
2021/04/13 09:59:44;;;;;;;;;;;461.50;1843.20;;;;;;5016544;28;20022;-80
2021/04/13 10:02:35;;;;;;;16.80;7.68;;;461.50;1740.80;;;;;;5033410;28;19913;-79
2021/04/13 10:05:11;;;;;;;16.42;7.57;;;461.70;1766.40;;;;;;5033967;28;20025;-80
2021/04/13 10:07:53;;;;;;;18.20;8.55;;;461.70;1715.20;;;;;;5016612;28;20083;-80
2021/04/13 10:10:39;;;;;;;9.07;5.03;;;461.70;1664.00;;;;;;5016505;28;20028;-80
2021/04/13 10:13:19;;;;;;;10.05;3.97;;;461.70;1228.80;;;;;;5015837;28;20533;-80
2021/04/13 10:16:18;;;;;;;7.60;4.18;;;461.70;1203.20;;;;;;5033551;28;20021;-80
2021/04/13 10:18:47;;;;;;;8.50;4.90;;;461.50;1152.00;;;;;;5010019;28;20045;-80
2021/04/13 10:21:18;;;;;;;8.65;5.28;;;461.60;1152.00;;;;;;5015833;28;20401;-80
2021/04/13 10:24:07;;;;;;;7.88;4.20;;;461.50;1152.00;;;;;;5015579;28;20040;-80
2021/04/13 10:27:01;;;;;;;12.43;4.85;;;461.40;1177.60;;;;;;5015915;28;20036;-80
2021/04/13 10:29:43;;;;;;;7.97;3.78;;;461.40;1152.00;;;;;;5015404;28;20033;-80
2021/04/13 10:32:15;;;;;;;8.13;3.83;;;461.30;1152.00;;;;;;5015822;28;20092;-80
2021/04/13 10:35:08;;;;;;;11.73;3.63;;;461.30;1177.60;;;;;;5015812;28;20029;-80
2021/04/13 10:37:41;;;;;;;;;;;461.30;1177.60;;;;;;5015793;28;20034;-80
2021/04/13 10:40:24;;;;;;;11.60;4.50;;;461.30;1177.60;;;;;;5015789;28;19905;-80
2021/04/13 10:43:34;;;;;;;8.50;4.43;;;461.20;1203.20;;;;;;5032953;28;20037;-80
2021/04/13 10:46:08;;;;;;;7.78;3.53;;;461.20;1203.20;;;;;;5015930;28;20033;-80
2021/04/13 10:48:46;;;;;;;12.40;5.72;;;461.10;1203.20;;;;;;5016483;28;20124;-81
2021/04/13 10:51:38;;;;;;;7.68;3.80;;;461.10;1177.60;;;;;;5015544;28;20381;-83
2021/04/13 10:54:25;;;;;;;19.23;8.95;;;461.00;1177.60;;;;;;5002134;28;20142;-80
2021/04/13 10:57:16;;;;;;;8.68;4.75;;;461.00;1152.00;;;;;;5033092;28;20067;-83
2021/04/13 11:00:14;;;;;;;9.60;4.60;;;460.90;1177.60;;;;;;5016079;28;20431;-80
2021/04/13 11:02:57;;;;;;;15.38;7.28;;;460.80;1152.00;;;;;;5016227;28;20536;-83
2021/04/13 11:05:37;;;;;;;;;;;460.80;1177.60;;;;;;5019331;28;20022;-80
2021/04/13 11:08:20;;;;;;;9.60;5.25;;;460.90;1203.20;;;;;;5037063;28;20007;-80
2021/04/13 11:10:58;;;;;;;13.13;4.28;;;460.80;1228.80;;;;;;5020007;28;20172;-83
2021/04/13 11:13:47;;;;;;;9.63;5.00;;;460.80;1254.40;;;;;;5019535;28;20033;-83
2021/04/13 11:16:53;;;;;;;12.02;5.35;;;460.80;1280.00;;;;;;5019877;28;20057;-83
2021/04/13 11:19:27;;;;;;;10.63;4.10;;;436.10;1305.60;;;;;;5019149;28;20032;-83
2021/04/13 11:22:07;;;;;;;27.10;17.52;;;435.90;1356.80;;;;;;5037069;28;20033;-83
2021/04/13 11:25:14;;;;;;;12.05;8.57;;;435.80;1382.40;;;;;;5019654;28;20461;-82
2021/04/13 11:28:02;;;;;;;10.57;6.00;;;435.70;1408.00;;;;;;5036262;28;20155;-83
2021/04/13 11:30:55;;;;;;;10.23;6.18;;;435.50;1561.60;;;;;;5036704;28;20029;-83
2021/04/13 11:33:42;;;;;;;8.75;4.72;;;435.30;1664.00;;;;;;5018917;28;20358;-83
2021/04/13 11:36:19;;;;;;;12.85;7.60;;;410.50;1664.00;;;;;;5019266;28;20021;-83
2021/04/13 11:38:51;;;;;;;9.27;4.03;;;410.40;1638.40;;;;;;5019608;28;20029;-83
2021/04/13 11:41:40;;;;;;;21.57;15.63;;;410.50;1638.40;;;;;;5018561;28;20124;-83
2021/04/13 11:44:18;;;;;;;12.35;7.75;;;435.30;1715.20;;;;;;5019194;28;20380;-82
2021/04/13 11:46:56;;;;;;;8.65;4.90;;;435.30;1689.60;;;;;;5018127;28;20033;-83
2021/04/13 11:49:56;;;;;;;11.05;7.70;;;435.30;1766.40;;;;;;5018686;28;20029;-80
2021/04/13 11:52:32;;;;;;;11.63;4.50;;;435.30;1792.00;;;;;;5013580;28;20060;-80
2021/04/13 11:54:58;;;;;;;32.03;20.23;;;435.30;1740.80;;;;;;5017698;28;20064;-80
2021/04/13 11:57:51;;;;;;;12.73;8.00;;;435.30;1894.40;;;;;;5018363;28;20141;-80
2021/04/13 12:00:20;;;;;;;;;;;435.50;1817.60;;;;;;5018406;28;20022;-79
2021/04/13 12:03:23;;;;;;;15.20;6.80;;;435.50;1843.20;;;;;;5034764;28;19913;-80
2021/04/13 12:05:56;;;;;;;12.30;4.20;;;435.50;1792.00;;;;;;5036661;28;20464;-81
2021/04/13 12:08:46;;;;;;;9.88;4.90;;;435.50;1689.60;;;;;;5018178;28;20021;-81
2021/04/13 12:11:15;;;;;;;10.98;6.43;;;435.60;1894.40;;;;;;5018439;28;20036;-81
2021/04/13 12:13:46;;;;;;;12.43;9.80;;;435.70;1920.00;;;;;;5034177;28;20099;-81
2021/04/13 12:16:42;;;;;;;20.02;14.70;;;435.80;2048.00;;;;;;5017468;28;20076;-81
2021/04/13 12:19:18;;;;;;;26.05;16.73;;;435.80;2099.20;;;;;;5016763;28;20557;-81
2021/04/13 12:21:52;;;;;;;16.27;10.63;;;435.80;2022.40;;;;;;5017539;28;20091;-81
2021/04/13 12:24:34;;;;;;;23.13;16.05;;;435.80;1843.20;;;;;;5018900;28;20032;-81
2021/04/13 12:27:19;;;;;;;22.45;13.35;;;435.80;1894.40;;;;;;5042161;28;20029;-81
2021/04/13 12:29:45;;;;;;;13.23;7.45;;;435.90;1894.40;;;;;;5037459;28;20025;-81
2021/04/13 12:32:14;;;;;;;18.67;10.98;;;435.90;1766.40;;;;;;5023282;28;20036;-81
2021/04/13 12:34:57;;;;;;;35.58;23.33;;;435.90;1740.80;;;;;;5041237;28;20021;-81
2021/04/13 12:37:46;;;;;;;35.40;20.35;;;435.90;1843.20;;;;;;5044829;28;20056;-81
2021/04/13 12:40:15;;;;;;;34.25;18.98;;;435.80;1868.80;;;;;;5027813;28;20091;-81
2021/04/13 12:43:06;;;;;;;29.30;17.90;;;435.90;1715.20;;;;;;5027527;28;20036;-81
2021/04/13 12:45:43;;;;;;;34.30;19.42;;;435.90;1843.20;;;;;;5037428;28;20038;-81
2021/04/13 12:48:15;;;;;;;22.40;13.25;;;435.70;1715.20;;;;;;5038425;28;20025;-81
2021/04/13 12:51:00;;;;;;;19.02;10.77;;;435.70;1715.20;;;;;;5021040;28;20026;-81
2021/04/13 12:53:26;;;;;;;16.15;7.18;;;435.70;1638.40;;;;;;5023799;28;20081;-80
2021/04/13 12:56:03;;;;;;;11.48;7.80;;;435.80;1638.40;;;;;;5041417;28;20033;-81
2021/04/13 12:58:31;;;;;;;9.35;4.63;;;435.70;1664.00;;;;;;5019863;28;20025;-76